Chattanooga Airport (CHA)

 

Airport Diagram
Current Weather/Forecast (VFR Conditions)
METAR KCHA 050153Z 12004KT 10SM FEW050 FEW075 SCT120 SCT200 24/22 A3000 RMK AO2 SLP152 CB DSNT S T02440217 $
TAF KCHA 042326Z 0500/0524 36004KT P6SM VCSH SCT050 FM050200 VRB03KT P6SM SCT050 FM050900 00000KT P6SM FEW250 TEMPO 0510/0512 4SM BR SCT007 FM051200 24006KT P6SM SCT090 PROB30 0521/0523 4SM TSRA BR BKN060CB

All Charts
General
Chart Name Download
AIRPORT DIAGRAM
TAKEOFF MINIMUMS
ALTERNATE MINIMUMS

Departures
Chart Name Download
CHATTANOOGA SIX

Approaches
Chart Name Download
ILS OR LOC RWY 02
ILS OR LOC RWY 20
ILS RWY 20 (CAT II)
RNAV (GPS) RWY 02
RNAV (GPS) RWY 15
RNAV (GPS) RWY 20
RNAV (GPS) RWY 33
VOR RWY 33


Inbound Traffic (Arrivals)

No inbound traffic.


Outbound Traffic (Departures)

No outbound traffic.